This is the latest recevied weather packets stored in our database for station/object K4CRS-13. If no packets are shown the sender has not sent any weather packets the latest 10 day(s).
| Time | Temp. | Humidity | Pressure | Rain* | Wind** | Luminosity | Snow |
|---|---|---|---|---|---|---|---|
| 1787577401 | 26.11° C | 71% | 1052.3 hPa | 0 mm | - | 190 W/m² | - |
| 1787577097 | 25.56° C | 73% | 1052.4 hPa | 0 mm | - | 225 W/m² | - |
| 1787576793 | 25° C | 73% | 1052.8 hPa | 0 mm | - | 299 W/m² | - |
| 1787576488 | 25° C | 74% | 1052.5 hPa | 0 mm | - | 269 W/m² | - |
| 1787576184 | 24.44° C | 77% | 1052.3 hPa | 0 mm | - | 201 W/m² | - |
| 1787575879 | 23.89° C | 77% | 1052.3 hPa | 0 mm | - | 160 W/m² | - |
| 1787575575 | 23.89° C | 79% | 1052.3 hPa | 0 mm | - | 146 W/m² | - |
| 1787575270 | 23.33° C | 81% | 1052.2 hPa | 0 mm | - | 111 W/m² | - |
| 1787574970 | 22.78° C | 82% | 1052.4 hPa | 0 mm | - | 132 W/m² | - |
| 1787574666 | 22.22° C | 86% | 1052.5 hPa | 0 mm | - | 123 W/m² | - |
| 1787574361 | 21.11° C | 90% | 1052.5 hPa | 0 mm | - | 106 W/m² | - |
| 1787574059 | 20.56° C | 93% | 1052.3 hPa | 0 mm | - | 82 W/m² | - |
| 1787573755 | 20° C | 94% | 1052.3 hPa | 0 mm | - | 69 W/m² | - |
| 1787573455 | 19.44° C | 95% | 1052.3 hPa | 0 mm | - | 57 W/m² | - |
| 1787573152 | 18.89° C | 95% | 1052.2 hPa | 0 mm | - | 42 W/m² | - |
| 1787572848 | 19.44° C | 95% | 1052 hPa | 0 mm | - | 26 W/m² | - |
| 1787572543 | 18.89° C | 95% | 1052.1 hPa | 0 mm | - | 20 W/m² | - |
| 1787572242 | 18.89° C | 95% | 1052.1 hPa | 0 mm | - | 17 W/m² | - |
| 1787571938 | 19.44° C | 95% | 1051.8 hPa | 0 mm | - | 14 W/m² | - |
| 1787571637 | 19.44° C | 95% | 1052 hPa | 0 mm | - | 12 W/m² | - |
| 1787571336 | 19.44° C | 95% | 1051.9 hPa | 0 mm | - | 10 W/m² | - |
| 1787571032 | 19.44° C | 95% | 1051.9 hPa | 0 mm | - | 8 W/m² | - |
| 1787570727 | 19.44° C | 95% | 1051.8 hPa | 0 mm | - | 5 W/m² | - |
| 1787570423 | 20° C | 94% | 1051.7 hPa | 0 mm | - | 3 W/m² | - |
| 1787570120 | 20° C | 94% | 1051.7 hPa | 0 mm | - | 2 W/m² | - |
* Rain latest hour (hover to see other rain measurements)
** Current wind speed in m/s (hover to see current wind gust speed)